Nearby METAR Reports

 

KMTN - Baltimore/Martin, Maryland, USA
Distance from station: SSE 8mi, 13km
Updated: Wed, 01-Oct-2014 5:45am EDT
Clear
Clear
 Wind from calm
Wind: Calm
Temperature: 63°F , 17°C
Dew Point: 63°F , 17°C
Humidity: 100%
Barometer: 29.98 inHg , 1015.2 hPa
Clouds: Clear
Visibility: 10 miles , 16 km
2014/10/01 09:45 KMTN 010945Z 00000KT 10SM SKC 17/17 A2998 RMK FIRST
KDMH - Baltimore/Dwntwn, Maryland, USA
Distance from station: SW 12mi, 19km
Updated: Wed, 01-Oct-2014 5:54am EDT

 
Temperature: 63°F , 17°C
Dew Point: 59°F , 15°C
Humidity: 88%
Barometer: 29.97 inHg , 1014.9 hPa
2014/10/01 09:54 KDMH 010954Z AUTO 17/15 A2997 RMK AO1 SLP150 T01720150
 
KBWI - Balto/Wash Intl, Maryland, USA
Distance from station: SSW 20mi, 33km
Updated: Wed, 01-Oct-2014 5:54am EDT
Mostly cloudy
Mostly cloudy
 Wind from ENE
Wind: ENE 6 mph , 9 km/h
Temperature: 63°F , 17°C
Dew Point: 61°F , 16°C
Humidity: 94%
Barometer: 29.96 inHg , 1014.6 hPa
Clouds: Mostly cloudy
Visibility: 8 miles , 13 km
Cloud details: Few Clouds 1400 ft
Partly cloudy 7000 ft
Partly cloudy 11000 ft
Mostly cloudy 17000 ft
2014/10/01 09:54 KBWI 010954Z 07005KT 8SM FEW014 SCT070 SCT110 BKN170 17/16 A2996 RMK AO2 SLP145 T01670156
KDMW - Carroll Cnty, Maryland, USA
Distance from station: WNW 30mi, 48km
Updated: Wed, 01-Oct-2014 5:50am EDT
Mist, Partly cloudy
Mist, Partly cloudy
 Wind from calm
Wind: Calm
Temperature: 61°F , 16°C
Dew Point: 57°F , 14°C
Humidity: 88%
Barometer: 29.98 inHg , 1015.2 hPa
Summary: Mist
Clouds: Partly cloudy
Visibility: 5 miles , 8 km
Cloud details: Partly cloudy 4800 ft
2014/10/01 09:50 KDMW 010950Z AUTO 00000KT 5SM BR SCT048 16/14 A2998 RMK AO2
 
KNAK - Annapolis/Naval, Maryland, USA
Distance from station: S 30mi, 48km
Updated: Wed, 01-Oct-2014 5:54am EDT
Clear
Clear
 
Temperature: 64°F , 18°C
Dew Point: 61°F , 16°C
Humidity: 88%
Barometer: 29.96 inHg , 1014.6 hPa
Clouds: Clear
Visibility: 10 miles , 16 km
2014/10/01 09:54 KNAK 010954Z AUTO 10SM CLR 18/16 A2996 RMK AO2 SLP148 T01780156 $
KW29 - Stevensville, Maryland, USA
Distance from station: SSE 31mi, 50km
Updated: Wed, 01-Oct-2014 5:52am EDT

 Wind from NE
Wind: NE 5 mph , 7 km/h
Temperature: 63°F , 17°C
Dew Point: 61°F , 16°C
Humidity: 94%
Barometer: 29.97 inHg , 1014.9 hPa
Visibility: 10 miles , 16 km
2014/10/01 09:52 KW29 010952Z AUTO 05004KT 10SM 17/16 A2997 RMK AO1
 
KCGS - College Park, Maryland, USA
Distance from station: SW 38mi, 61km
Updated: Wed, 01-Oct-2014 5:50am EDT
Mostly cloudy
Mostly cloudy
 Wind from calm
Wind: Calm
Temperature: 63°F , 17°C
Dew Point: 63°F , 17°C
Humidity: 100%
Barometer: 29.97 inHg , 1014.9 hPa
Clouds: Mostly cloudy
Visibility: 10 miles , 16 km
Cloud details: Mostly cloudy 600 ft
Mostly cloudy 1300 ft
Mostly cloudy 6500 ft
2014/10/01 09:50 KCGS 010950Z AUTO 00000KT 10SM BKN006 BKN013 BKN065 17/17 A2997 RMK AO1
KGAI - Gaithersburg, Maryland, USA
Distance from station: WSW 40mi, 65km
Updated: Wed, 01-Oct-2014 5:55am EDT
Overcast
Overcast
 Wind from calm
Wind: Calm
Temperature: 61°F , 16°C
Dew Point: 59°F , 15°C
Humidity: 94%
Barometer: 30.01 inHg , 1016.3 hPa
Clouds: Overcast
Visibility: 9 miles , 14 km
Cloud details: Mostly cloudy 800 ft
Mostly cloudy 1200 ft
Overcast 3600 ft
2014/10/01 09:55 KGAI 010955Z 00000KT 9SM BKN008 BKN012 OVC036 16/15 A3001 RMK AO1
 
KTHV - York, Pennsylvania, USA
Distance from station: NNW 40mi, 65km
Updated: Wed, 01-Oct-2014 6:00am EDT
Mist, Mostly cloudy
Mist, Mostly cloudy
 Wind from calm
Wind: Calm
Temperature: 57°F , 14°C
Dew Point: 55°F , 13°C
Humidity: 94%
Barometer: 29.98 inHg , 1015.2 hPa
Summary: Mist
Clouds: Mostly cloudy
Visibility: 1 3/4 miles , 5 km
Cloud details: Mostly cloudy 1100 ft
2014/10/01 10:00 KTHV 011000Z AUTO 00000KT 1 3/4SM BR BKN011 14/13 A2998 RMK AO2 T01390133
KFDK - Frederick, Maryland, USA
Distance from station: W 47mi, 75km
Updated: Wed, 01-Oct-2014 5:50am EDT
Mist, Overcast
Mist, Overcast
 Wind from N
Wind: N 5 mph , 7 km/h
Temperature: 63°F , 17°C
Dew Point: 61°F , 16°C
Humidity: 94%
Barometer: 30.00 inHg , 1015.9 hPa
Summary: Mist
Clouds: Overcast
Visibility: 4 miles , 6 km
Cloud details: Overcast 500 ft
2014/10/01 09:50 KFDK 010950Z AUTO 01004KT 4SM BR OVC005 17/16 A3000 RMK AO2
 
KESN - Easton/Newnam, Maryland, USA
Distance from station: SSE 48mi, 78km
Updated: Wed, 01-Oct-2014 6:04am EDT
Mostly cloudy
Mostly cloudy
 Wind from calm
Wind: Calm
Temperature: 61°F , 16°C
Dew Point: 61°F , 16°C
Humidity: 100%
Barometer: 30.00 inHg , 1015.9 hPa
Clouds: Mostly cloudy
Visibility: 7 miles , 11 km
Cloud details: Mostly cloudy 500 ft
Mostly cloudy 12000 ft
2014/10/01 10:04 KESN 011004Z AUTO 00000KT 7SM BKN005 BKN120 16/16 A3000 RMK AO2 T01640164
KDCA - Washington/Natl, Washington D.c., USA
Distance from station: SW 49mi, 79km
Updated: Wed, 01-Oct-2014 5:52am EDT
Light rain, Overcast
Light rain, Overcast
 Wind from ENE
Wind: ENE 8 mph , 13 km/h
Temperature: 66°F , 19°C
Dew Point: 61°F , 16°C
Humidity: 83%
Barometer: 29.97 inHg , 1014.9 hPa
Summary: Light rain
Clouds: Overcast
Visibility: 10 miles , 16 km
Cloud details: Partly cloudy 1000 ft
Mostly cloudy 3400 ft
Overcast 10000 ft
2014/10/01 09:52 KDCA 010952Z 06007KT 10SM -RA SCT010 BKN034 OVC100 19/16 A2997 RMK AO2 RAB34 SLP149 P0000 T01940156
 
KLNS - Lancaster, Pennsylvania, USA
Distance from station: N 49mi, 79km
Updated: Wed, 01-Oct-2014 5:53am EDT
Patches of fog, Partly cloudy
Patches of fog, Partly cloudy
 Wind from calm
Wind: Calm
Temperature: 57°F , 14°C
Dew Point: 57°F , 14°C
Humidity: 100%
Barometer: 29.98 inHg , 1015.2 hPa
Summary: Patches of Fog
Clouds: Partly cloudy
Visibility: 1 mile , 2 km
Cloud details: Partly cloudy 400 ft
2014/10/01 09:53 KLNS 010953Z 00000KT 1SM BCFG SCT004 14/14 A2998 RMK AO2 SLP152 T01390139 $
KILG - Wilmington, Delaware, USA
Distance from station: ENE 50mi, 81km
Updated: Wed, 01-Oct-2014 5:51am EDT
Mostly cloudy
Mostly cloudy
 Wind from NNE
Wind: NNE 5 mph , 7 km/h
Temperature: 61°F , 16°C
Dew Point: 57°F , 14°C
Humidity: 88%
Barometer: 29.97 inHg , 1014.9 hPa
Clouds: Mostly cloudy
Visibility: 10 miles , 16 km
Cloud details: Mostly cloudy 10000 ft
2014/10/01 09:51 KILG 010951Z 02004KT 10SM BKN100 16/14 A2997 RMK AO2 SLP149 T01610144